sensor_id;sensor_type;location;lat;lon;timestamp;temperature;humidity
18823;DHT22;9540;51.550;7.980;2024-02-26T00:01:32;2.10;99.90
18823;DHT22;9540;51.550;7.980;2024-02-26T00:03:59;2.20;99.90
18823;DHT22;9540;51.550;7.980;2024-02-26T00:06:28;2.20;99.90
18823;DHT22;9540;51.550;7.980;2024-02-26T00:08:55;2.30;99.90
18823;DHT22;9540;51.550;7.980;2024-02-26T00:11:23;2.30;99.90
18823;DHT22;9540;51.550;7.980;2024-02-26T00:13:50;2.40;99.90
18823;DHT22;9540;51.550;7.980;2024-02-26T00:16:17;2.50;99.90
18823;DHT22;9540;51.550;7.980;2024-02-26T00:18:44;2.70;99.90
18823;DHT22;9540;51.550;7.980;2024-02-26T00:21:12;2.80;99.90
18823;DHT22;9540;51.550;7.980;2024-02-26T00:23:39;2.90;99.90
18823;DHT22;9540;51.550;7.980;2024-02-26T00:26:06;2.90;99.90
18823;DHT22;9540;51.550;7.980;2024-02-26T00:28:34;3.00;99.90
18823;DHT22;9540;51.550;7.980;2024-02-26T00:31:02;3.20;99.90
18823;DHT22;9540;51.550;7.980;2024-02-26T00:33:29;3.20;99.90
18823;DHT22;9540;51.550;7.980;2024-02-26T00:35:56;3.30;99.90
18823;DHT22;9540;51.550;7.980;2024-02-26T00:38:23;3.40;99.90
18823;DHT22;9540;51.550;7.980;2024-02-26T00:40:49;3.40;99.90
18823;DHT22;9540;51.550;7.980;2024-02-26T00:43:17;3.60;99.90
18823;DHT22;9540;51.550;7.980;2024-02-26T00:45:46;3.70;99.90
18823;DHT22;9540;51.550;7.980;2024-02-26T00:48:13;3.80;99.90
18823;DHT22;9540;51.550;7.980;2024-02-26T00:50:40;3.80;99.90
18823;DHT22;9540;51.550;7.980;2024-02-26T00:53:08;3.80;99.90
18823;DHT22;9540;51.550;7.980;2024-02-26T00:55:35;3.90;99.90
18823;DHT22;9540;51.550;7.980;2024-02-26T00:58:02;4.00;99.90
18823;DHT22;9540;51.550;7.980;2024-02-26T01:00:29;4.00;99.90
18823;DHT22;9540;51.550;7.980;2024-02-26T01:02:57;4.00;99.90
18823;DHT22;9540;51.550;7.980;2024-02-26T01:05:25;4.00;99.90
18823;DHT22;9540;51.550;7.980;2024-02-26T01:07:52;4.00;99.90
18823;DHT22;9540;51.550;7.980;2024-02-26T01:10:19;4.00;99.90
18823;DHT22;9540;51.550;7.980;2024-02-26T01:12:46;4.00;99.90
18823;DHT22;9540;51.550;7.980;2024-02-26T01:15:14;4.00;99.90
18823;DHT22;9540;51.550;7.980;2024-02-26T01:17:41;4.00;99.90
18823;DHT22;9540;51.550;7.980;2024-02-26T01:20:10;4.00;99.90
18823;DHT22;9540;51.550;7.980;2024-02-26T01:22:37;4.00;99.90
18823;DHT22;9540;51.550;7.980;2024-02-26T01:25:07;4.00;99.90
18823;DHT22;9540;51.550;7.980;2024-02-26T01:27:35;4.00;99.90
18823;DHT22;9540;51.550;7.980;2024-02-26T01:30:02;4.00;99.90
18823;DHT22;9540;51.550;7.980;2024-02-26T01:32:30;4.00;99.90
18823;DHT22;9540;51.550;7.980;2024-02-26T01:34:58;4.10;99.90
18823;DHT22;9540;51.550;7.980;2024-02-26T01:37:26;4.20;99.90
18823;DHT22;9540;51.550;7.980;2024-02-26T01:39:55;4.20;99.90
18823;DHT22;9540;51.550;7.980;2024-02-26T01:42:22;4.30;99.90
18823;DHT22;9540;51.550;7.980;2024-02-26T01:44:49;4.20;99.90
18823;DHT22;9540;51.550;7.980;2024-02-26T01:47:16;4.30;99.90
18823;DHT22;9540;51.550;7.980;2024-02-26T01:49:43;4.30;99.90
18823;DHT22;9540;51.550;7.980;2024-02-26T01:52:11;4.30;99.90
18823;DHT22;9540;51.550;7.980;2024-02-26T01:54:40;4.20;99.90
18823;DHT22;9540;51.550;7.980;2024-02-26T01:57:09;4.20;99.90
18823;DHT22;9540;51.550;7.980;2024-02-26T01:59:37;4.20;99.90
18823;DHT22;9540;51.550;7.980;2024-02-26T02:02:06;4.10;99.90
18823;DHT22;9540;51.550;7.980;2024-02-26T02:04:34;4.10;99.90
18823;DHT22;9540;51.550;7.980;2024-02-26T02:07:02;4.00;99.90
18823;DHT22;9540;51.550;7.980;2024-02-26T02:09:30;4.00;99.90
18823;DHT22;9540;51.550;7.980;2024-02-26T02:11:59;4.00;99.90
18823;DHT22;9540;51.550;7.980;2024-02-26T02:14:27;3.90;99.90
18823;DHT22;9540;51.550;7.980;2024-02-26T02:16:54;3.90;99.90
18823;DHT22;9540;51.550;7.980;2024-02-26T02:19:21;3.90;99.90
18823;DHT22;9540;51.550;7.980;2024-02-26T02:21:50;3.90;99.90
18823;DHT22;9540;51.550;7.980;2024-02-26T02:24:17;3.80;99.90
18823;DHT22;9540;51.550;7.980;2024-02-26T02:26:44;3.80;99.90
18823;DHT22;9540;51.550;7.980;2024-02-26T02:29:13;3.70;99.90
18823;DHT22;9540;51.550;7.980;2024-02-26T02:31:41;3.80;99.90
18823;DHT22;9540;51.550;7.980;2024-02-26T02:34:09;3.70;99.90
18823;DHT22;9540;51.550;7.980;2024-02-26T02:36:51;3.70;99.90
18823;DHT22;9540;51.550;7.980;2024-02-26T02:39:18;3.70;99.90
18823;DHT22;9540;51.550;7.980;2024-02-26T02:41:46;3.70;99.90
18823;DHT22;9540;51.550;7.980;2024-02-26T02:44:13;3.70;99.90
18823;DHT22;9540;51.550;7.980;2024-02-26T02:46:40;3.80;99.90
18823;DHT22;9540;51.550;7.980;2024-02-26T02:49:08;3.80;99.90
18823;DHT22;9540;51.550;7.980;2024-02-26T02:51:36;3.80;99.90
18823;DHT22;9540;51.550;7.980;2024-02-26T02:54:05;3.80;99.90
18823;DHT22;9540;51.550;7.980;2024-02-26T02:56:32;3.90;99.90
18823;DHT22;9540;51.550;7.980;2024-02-26T02:58:59;3.90;99.90
18823;DHT22;9540;51.550;7.980;2024-02-26T03:01:26;3.90;99.90
18823;DHT22;9540;51.550;7.980;2024-02-26T03:03:53;3.90;99.90
18823;DHT22;9540;51.550;7.980;2024-02-26T03:06:20;3.90;99.90
18823;DHT22;9540;51.550;7.980;2024-02-26T03:08:48;3.90;99.90
18823;DHT22;9540;51.550;7.980;2024-02-26T03:11:17;3.90;99.90
18823;DHT22;9540;51.550;7.980;2024-02-26T03:13:45;3.90;99.90
18823;DHT22;9540;51.550;7.980;2024-02-26T03:16:12;3.80;99.90
18823;DHT22;9540;51.550;7.980;2024-02-26T03:18:39;3.80;99.90
18823;DHT22;9540;51.550;7.980;2024-02-26T03:21:06;3.80;99.90
18823;DHT22;9540;51.550;7.980;2024-02-26T03:23:33;3.70;99.90
18823;DHT22;9540;51.550;7.980;2024-02-26T03:26:03;3.70;99.90
18823;DHT22;9540;51.550;7.980;2024-02-26T03:28:31;3.80;99.90
18823;DHT22;9540;51.550;7.980;2024-02-26T03:30:59;3.80;99.90
18823;DHT22;9540;51.550;7.980;2024-02-26T03:33:26;3.80;99.90
18823;DHT22;9540;51.550;7.980;2024-02-26T03:35:53;3.80;99.90
18823;DHT22;9540;51.550;7.980;2024-02-26T03:38:20;3.80;99.90
18823;DHT22;9540;51.550;7.980;2024-02-26T03:40:47;3.90;99.90
18823;DHT22;9540;51.550;7.980;2024-02-26T03:43:14;3.90;99.90
18823;DHT22;9540;51.550;7.980;2024-02-26T03:45:42;3.90;99.90
18823;DHT22;9540;51.550;7.980;2024-02-26T03:48:09;3.90;99.90
18823;DHT22;9540;51.550;7.980;2024-02-26T03:50:36;3.90;99.90
18823;DHT22;9540;51.550;7.980;2024-02-26T03:53:04;4.00;99.90
18823;DHT22;9540;51.550;7.980;2024-02-26T03:55:31;4.00;99.90
18823;DHT22;9540;51.550;7.980;2024-02-26T03:57:58;4.10;99.90
18823;DHT22;9540;51.550;7.980;2024-02-26T04:00:25;4.00;99.90
18823;DHT22;9540;51.550;7.980;2024-02-26T04:02:56;4.00;99.90
18823;DHT22;9540;51.550;7.980;2024-02-26T04:05:23;4.00;99.90
18823;DHT22;9540;51.550;7.980;2024-02-26T04:07:50;4.00;99.90
18823;DHT22;9540;51.550;7.980;2024-02-26T04:10:17;4.10;99.90
18823;DHT22;9540;51.550;7.980;2024-02-26T04:12:44;4.00;99.90
18823;DHT22;9540;51.550;7.980;2024-02-26T04:15:12;4.10;99.90
18823;DHT22;9540;51.550;7.980;2024-02-26T04:17:39;4.00;99.90
18823;DHT22;9540;51.550;7.980;2024-02-26T04:20:14;4.00;99.90
18823;DHT22;9540;51.550;7.980;2024-02-26T04:22:42;4.10;99.90
18823;DHT22;9540;51.550;7.980;2024-02-26T04:25:09;4.20;99.90
18823;DHT22;9540;51.550;7.980;2024-02-26T04:27:37;4.20;99.90
18823;DHT22;9540;51.550;7.980;2024-02-26T04:30:05;4.20;99.90
18823;DHT22;9540;51.550;7.980;2024-02-26T04:32:32;4.30;99.90
18823;DHT22;9540;51.550;7.980;2024-02-26T04:35:00;4.30;99.90
18823;DHT22;9540;51.550;7.980;2024-02-26T04:37:28;4.30;99.90
18823;DHT22;9540;51.550;7.980;2024-02-26T04:39:58;4.30;99.90
18823;DHT22;9540;51.550;7.980;2024-02-26T04:42:25;4.20;99.90
18823;DHT22;9540;51.550;7.980;2024-02-26T04:44:52;4.20;99.90
18823;DHT22;9540;51.550;7.980;2024-02-26T04:47:20;4.20;99.90
18823;DHT22;9540;51.550;7.980;2024-02-26T04:49:48;4.30;99.90
18823;DHT22;9540;51.550;7.980;2024-02-26T04:52:15;4.30;99.90
18823;DHT22;9540;51.550;7.980;2024-02-26T04:54:44;4.40;99.90
18823;DHT22;9540;51.550;7.980;2024-02-26T04:57:11;4.50;99.90
18823;DHT22;9540;51.550;7.980;2024-02-26T04:59:38;4.50;99.90
18823;DHT22;9540;51.550;7.980;2024-02-26T05:02:06;4.50;99.90
18823;DHT22;9540;51.550;7.980;2024-02-26T05:04:33;4.50;99.90
18823;DHT22;9540;51.550;7.980;2024-02-26T05:07:00;4.60;99.90
18823;DHT22;9540;51.550;7.980;2024-02-26T05:09:27;4.60;99.90
18823;DHT22;9540;51.550;7.980;2024-02-26T05:11:56;4.60;99.90
18823;DHT22;9540;51.550;7.980;2024-02-26T05:14:23;4.60;99.90
18823;DHT22;9540;51.550;7.980;2024-02-26T05:16:50;4.50;99.90
18823;DHT22;9540;51.550;7.980;2024-02-26T05:19:17;4.50;99.90
18823;DHT22;9540;51.550;7.980;2024-02-26T05:21:44;4.50;99.90
18823;DHT22;9540;51.550;7.980;2024-02-26T05:24:13;4.60;99.90
18823;DHT22;9540;51.550;7.980;2024-02-26T05:26:41;4.60;99.90
18823;DHT22;9540;51.550;7.980;2024-02-26T05:29:10;4.60;99.90
18823;DHT22;9540;51.550;7.980;2024-02-26T05:31:37;4.60;99.90
18823;DHT22;9540;51.550;7.980;2024-02-26T05:34:04;4.60;99.90
18823;DHT22;9540;51.550;7.980;2024-02-26T05:36:31;4.70;99.90
18823;DHT22;9540;51.550;7.980;2024-02-26T05:38:59;4.70;99.90
18823;DHT22;9540;51.550;7.980;2024-02-26T05:41:27;4.60;99.90
18823;DHT22;9540;51.550;7.980;2024-02-26T05:43:55;4.60;99.90
18823;DHT22;9540;51.550;7.980;2024-02-26T05:46:23;4.60;99.90
18823;DHT22;9540;51.550;7.980;2024-02-26T05:48:52;4.60;99.90
18823;DHT22;9540;51.550;7.980;2024-02-26T05:51:19;4.60;99.90
18823;DHT22;9540;51.550;7.980;2024-02-26T05:53:46;4.60;99.90
18823;DHT22;9540;51.550;7.980;2024-02-26T05:56:19;4.60;99.90
18823;DHT22;9540;51.550;7.980;2024-02-26T05:58:47;4.60;99.90
18823;DHT22;9540;51.550;7.980;2024-02-26T06:01:15;4.60;99.90
18823;DHT22;9540;51.550;7.980;2024-02-26T06:03:45;4.60;99.90
18823;DHT22;9540;51.550;7.980;2024-02-26T06:06:12;4.60;99.90
18823;DHT22;9540;51.550;7.980;2024-02-26T06:08:39;4.60;99.90
18823;DHT22;9540;51.550;7.980;2024-02-26T06:11:07;4.60;99.90
18823;DHT22;9540;51.550;7.980;2024-02-26T06:13:34;4.50;99.90
18823;DHT22;9540;51.550;7.980;2024-02-26T06:16:02;4.60;99.90
18823;DHT22;9540;51.550;7.980;2024-02-26T06:18:29;4.50;99.90
18823;DHT22;9540;51.550;7.980;2024-02-26T06:20:57;4.50;99.90
18823;DHT22;9540;51.550;7.980;2024-02-26T06:23:25;4.50;99.90
18823;DHT22;9540;51.550;7.980;2024-02-26T06:25:52;4.50;99.90
18823;DHT22;9540;51.550;7.980;2024-02-26T06:28:19;4.50;99.90
18823;DHT22;9540;51.550;7.980;2024-02-26T06:30:47;4.60;99.90
18823;DHT22;9540;51.550;7.980;2024-02-26T06:33:16;4.60;99.90
18823;DHT22;9540;51.550;7.980;2024-02-26T06:35:44;4.60;99.90
18823;DHT22;9540;51.550;7.980;2024-02-26T06:38:12;4.60;99.90
18823;DHT22;9540;51.550;7.980;2024-02-26T06:40:40;4.50;99.90
18823;DHT22;9540;51.550;7.980;2024-02-26T06:43:07;4.50;99.90
18823;DHT22;9540;51.550;7.980;2024-02-26T06:45:34;4.40;99.90
18823;DHT22;9540;51.550;7.980;2024-02-26T06:48:02;4.40;99.90
18823;DHT22;9540;51.550;7.980;2024-02-26T06:50:29;4.50;99.90
18823;DHT22;9540;51.550;7.980;2024-02-26T06:52:56;4.40;99.90
18823;DHT22;9540;51.550;7.980;2024-02-26T06:55:24;4.50;99.90
18823;DHT22;9540;51.550;7.980;2024-02-26T06:57:51;4.50;99.90
18823;DHT22;9540;51.550;7.980;2024-02-26T07:00:19;4.60;99.90
18823;DHT22;9540;51.550;7.980;2024-02-26T07:02:46;4.60;99.90
18823;DHT22;9540;51.550;7.980;2024-02-26T07:05:13;4.60;99.90
18823;DHT22;9540;51.550;7.980;2024-02-26T07:07:40;4.70;99.90
18823;DHT22;9540;51.550;7.980;2024-02-26T07:10:08;4.80;99.90
18823;DHT22;9540;51.550;7.980;2024-02-26T07:12:36;4.80;99.90
18823;DHT22;9540;51.550;7.980;2024-02-26T07:15:05;4.90;99.90
18823;DHT22;9540;51.550;7.980;2024-02-26T07:17:33;4.90;99.90
18823;DHT22;9540;51.550;7.980;2024-02-26T07:20:01;5.00;99.90
18823;DHT22;9540;51.550;7.980;2024-02-26T07:22:30;5.00;99.90
18823;DHT22;9540;51.550;7.980;2024-02-26T07:24:57;5.10;99.90
18823;DHT22;9540;51.550;7.980;2024-02-26T07:27:24;5.10;99.90
18823;DHT22;9540;51.550;7.980;2024-02-26T07:29:53;5.10;99.90
18823;DHT22;9540;51.550;7.980;2024-02-26T07:32:20;5.10;99.90
18823;DHT22;9540;51.550;7.980;2024-02-26T07:34:48;5.20;99.90
18823;DHT22;9540;51.550;7.980;2024-02-26T07:37:15;5.10;99.90
18823;DHT22;9540;51.550;7.980;2024-02-26T07:39:42;5.20;99.90
18823;DHT22;9540;51.550;7.980;2024-02-26T07:42:09;5.20;99.90
18823;DHT22;9540;51.550;7.980;2024-02-26T07:44:36;5.20;99.90
18823;DHT22;9540;51.550;7.980;2024-02-26T07:47:05;5.30;99.90
18823;DHT22;9540;51.550;7.980;2024-02-26T07:49:32;5.30;99.90
18823;DHT22;9540;51.550;7.980;2024-02-26T07:51:59;5.40;99.90
18823;DHT22;9540;51.550;7.980;2024-02-26T07:54:26;5.40;99.90
18823;DHT22;9540;51.550;7.980;2024-02-26T07:56:53;5.50;99.90
18823;DHT22;9540;51.550;7.980;2024-02-26T07:59:20;5.50;99.90
18823;DHT22;9540;51.550;7.980;2024-02-26T08:01:50;5.50;99.90
18823;DHT22;9540;51.550;7.980;2024-02-26T08:04:19;5.60;99.90
18823;DHT22;9540;51.550;7.980;2024-02-26T08:06:46;5.60;99.90
18823;DHT22;9540;51.550;7.980;2024-02-26T08:09:13;5.70;99.90
18823;DHT22;9540;51.550;7.980;2024-02-26T08:11:40;5.80;99.90
18823;DHT22;9540;51.550;7.980;2024-02-26T08:14:07;5.90;99.90
18823;DHT22;9540;51.550;7.980;2024-02-26T08:16:34;5.90;99.90
18823;DHT22;9540;51.550;7.980;2024-02-26T08:19:01;6.00;99.90
18823;DHT22;9540;51.550;7.980;2024-02-26T08:21:30;6.00;99.90
18823;DHT22;9540;51.550;7.980;2024-02-26T08:23:57;6.20;99.90
18823;DHT22;9540;51.550;7.980;2024-02-26T08:26:24;6.20;99.90
18823;DHT22;9540;51.550;7.980;2024-02-26T08:28:51;6.30;99.90
18823;DHT22;9540;51.550;7.980;2024-02-26T08:31:20;6.40;99.90
18823;DHT22;9540;51.550;7.980;2024-02-26T08:33:49;6.40;99.90
18823;DHT22;9540;51.550;7.980;2024-02-26T08:36:16;6.50;99.90
18823;DHT22;9540;51.550;7.980;2024-02-26T08:38:44;6.60;99.90
18823;DHT22;9540;51.550;7.980;2024-02-26T08:41:11;6.60;99.90
18823;DHT22;9540;51.550;7.980;2024-02-26T08:43:38;6.60;99.90
18823;DHT22;9540;51.550;7.980;2024-02-26T08:46:08;6.60;99.90
18823;DHT22;9540;51.550;7.980;2024-02-26T08:48:36;6.60;99.90
18823;DHT22;9540;51.550;7.980;2024-02-26T08:51:05;6.60;99.90
18823;DHT22;9540;51.550;7.980;2024-02-26T08:53:33;6.70;99.90
18823;DHT22;9540;51.550;7.980;2024-02-26T08:56:02;6.70;99.90
18823;DHT22;9540;51.550;7.980;2024-02-26T08:58:29;6.70;99.90
18823;DHT22;9540;51.550;7.980;2024-02-26T09:00:56;6.70;99.90
18823;DHT22;9540;51.550;7.980;2024-02-26T09:03:23;6.80;99.90
18823;DHT22;9540;51.550;7.980;2024-02-26T09:05:51;6.80;99.90
18823;DHT22;9540;51.550;7.980;2024-02-26T09:08:18;6.90;99.90
18823;DHT22;9540;51.550;7.980;2024-02-26T09:10:45;7.00;99.90
18823;DHT22;9540;51.550;7.980;2024-02-26T09:13:14;7.00;99.90
18823;DHT22;9540;51.550;7.980;2024-02-26T09:15:41;7.10;99.90
18823;DHT22;9540;51.550;7.980;2024-02-26T09:18:08;7.20;99.90
18823;DHT22;9540;51.550;7.980;2024-02-26T09:20:35;7.30;99.90
18823;DHT22;9540;51.550;7.980;2024-02-26T09:23:03;7.40;99.90
18823;DHT22;9540;51.550;7.980;2024-02-26T09:25:30;7.40;99.90
18823;DHT22;9540;51.550;7.980;2024-02-26T09:27:59;7.40;99.90
18823;DHT22;9540;51.550;7.980;2024-02-26T09:30:28;7.40;99.90
18823;DHT22;9540;51.550;7.980;2024-02-26T09:32:55;7.50;99.90
18823;DHT22;9540;51.550;7.980;2024-02-26T09:35:23;7.50;99.90
18823;DHT22;9540;51.550;7.980;2024-02-26T09:37:50;7.50;99.90
18823;DHT22;9540;51.550;7.980;2024-02-26T09:40:18;7.60;99.90
18823;DHT22;9540;51.550;7.980;2024-02-26T09:42:45;7.70;99.90
18823;DHT22;9540;51.550;7.980;2024-02-26T09:45:17;7.80;99.90
18823;DHT22;9540;51.550;7.980;2024-02-26T09:47:48;7.80;99.90
18823;DHT22;9540;51.550;7.980;2024-02-26T09:50:16;7.90;99.90
18823;DHT22;9540;51.550;7.980;2024-02-26T09:52:48;8.00;99.90
18823;DHT22;9540;51.550;7.980;2024-02-26T09:55:16;8.10;99.90
18823;DHT22;9540;51.550;7.980;2024-02-26T09:57:45;8.20;99.90
18823;DHT22;9540;51.550;7.980;2024-02-26T10:00:17;8.20;99.90
18823;DHT22;9540;51.550;7.980;2024-02-26T10:02:47;8.30;99.90
18823;DHT22;9540;51.550;7.980;2024-02-26T10:05:17;8.30;99.90
18823;DHT22;9540;51.550;7.980;2024-02-26T10:07:45;8.20;99.90
18823;DHT22;9540;51.550;7.980;2024-02-26T10:10:14;8.20;99.90
18823;DHT22;9540;51.550;7.980;2024-02-26T10:12:41;8.10;99.90
18823;DHT22;9540;51.550;7.980;2024-02-26T10:15:08;8.10;99.90
18823;DHT22;9540;51.550;7.980;2024-02-26T10:17:36;8.10;99.90
18823;DHT22;9540;51.550;7.980;2024-02-26T10:20:15;8.20;99.90
18823;DHT22;9540;51.550;7.980;2024-02-26T10:22:43;8.30;99.90
18823;DHT22;9540;51.550;7.980;2024-02-26T10:25:10;8.40;99.90
18823;DHT22;9540;51.550;7.980;2024-02-26T10:27:40;8.50;99.90
18823;DHT22;9540;51.550;7.980;2024-02-26T10:30:16;8.50;99.90
18823;DHT22;9540;51.550;7.980;2024-02-26T10:32:45;8.50;99.90
18823;DHT22;9540;51.550;7.980;2024-02-26T10:35:14;8.50;99.90
18823;DHT22;9540;51.550;7.980;2024-02-26T10:37:41;8.60;99.90
18823;DHT22;9540;51.550;7.980;2024-02-26T10:40:10;8.60;99.90
18823;DHT22;9540;51.550;7.980;2024-02-26T10:42:37;8.70;99.90
18823;DHT22;9540;51.550;7.980;2024-02-26T10:45:05;8.80;99.90
18823;DHT22;9540;51.550;7.980;2024-02-26T10:47:33;8.80;99.90
18823;DHT22;9540;51.550;7.980;2024-02-26T10:50:02;8.80;99.90
18823;DHT22;9540;51.550;7.980;2024-02-26T10:52:32;8.90;99.90
18823;DHT22;9540;51.550;7.980;2024-02-26T10:55:01;8.90;99.90
18823;DHT22;9540;51.550;7.980;2024-02-26T10:57:33;8.90;99.90
18823;DHT22;9540;51.550;7.980;2024-02-26T11:00:03;8.90;99.90
18823;DHT22;9540;51.550;7.980;2024-02-26T11:02:32;9.00;99.90
18823;DHT22;9540;51.550;7.980;2024-02-26T11:05:02;9.00;99.90
18823;DHT22;9540;51.550;7.980;2024-02-26T11:07:32;9.10;99.90
18823;DHT22;9540;51.550;7.980;2024-02-26T11:10:00;9.20;99.90
18823;DHT22;9540;51.550;7.980;2024-02-26T11:12:29;9.20;99.90
18823;DHT22;9540;51.550;7.980;2024-02-26T11:14:56;9.20;99.90
18823;DHT22;9540;51.550;7.980;2024-02-26T11:17:26;9.20;99.90
18823;DHT22;9540;51.550;7.980;2024-02-26T11:19:56;9.20;99.90
18823;DHT22;9540;51.550;7.980;2024-02-26T11:22:24;9.30;99.90
18823;DHT22;9540;51.550;7.980;2024-02-26T11:24:54;9.30;99.90
18823;DHT22;9540;51.550;7.980;2024-02-26T11:27:26;9.20;99.90
18823;DHT22;9540;51.550;7.980;2024-02-26T11:29:56;9.20;99.90
18823;DHT22;9540;51.550;7.980;2024-02-26T11:32:26;9.10;99.90
18823;DHT22;9540;51.550;7.980;2024-02-26T11:34:54;9.10;99.90
18823;DHT22;9540;51.550;7.980;2024-02-26T11:37:21;9.10;99.90
18823;DHT22;9540;51.550;7.980;2024-02-26T11:39:48;9.10;99.90
18823;DHT22;9540;51.550;7.980;2024-02-26T11:42:24;9.00;99.90
18823;DHT22;9540;51.550;7.980;2024-02-26T11:44:51;9.10;99.90
18823;DHT22;9540;51.550;7.980;2024-02-26T11:47:20;9.10;99.90
18823;DHT22;9540;51.550;7.980;2024-02-26T11:49:47;9.10;99.90
18823;DHT22;9540;51.550;7.980;2024-02-26T11:52:15;9.00;99.90
18823;DHT22;9540;51.550;7.980;2024-02-26T11:54:48;9.00;99.90
18823;DHT22;9540;51.550;7.980;2024-02-26T11:57:24;9.00;99.90
18823;DHT22;9540;51.550;7.980;2024-02-26T11:59:52;9.00;99.90
18823;DHT22;9540;51.550;7.980;2024-02-26T12:02:38;8.90;99.90
18823;DHT22;9540;51.550;7.980;2024-02-26T12:05:08;8.80;99.90
18823;DHT22;9540;51.550;7.980;2024-02-26T12:07:39;8.80;99.90
18823;DHT22;9540;51.550;7.980;2024-02-26T12:10:20;8.80;99.90
18823;DHT22;9540;51.550;7.980;2024-02-26T12:12:55;8.70;99.90
18823;DHT22;9540;51.550;7.980;2024-02-26T12:15:26;8.70;99.90
18823;DHT22;9540;51.550;7.980;2024-02-26T12:17:58;8.90;99.90
18823;DHT22;9540;51.550;7.980;2024-02-26T12:20:27;9.00;99.90
18823;DHT22;9540;51.550;7.980;2024-02-26T12:22:54;9.00;99.90
18823;DHT22;9540;51.550;7.980;2024-02-26T12:25:24;9.00;99.90
18823;DHT22;9540;51.550;7.980;2024-02-26T12:27:54;9.00;99.90
18823;DHT22;9540;51.550;7.980;2024-02-26T12:30:22;8.90;99.90
18823;DHT22;9540;51.550;7.980;2024-02-26T12:32:51;8.90;99.90
18823;DHT22;9540;51.550;7.980;2024-02-26T12:35:19;8.90;99.90
18823;DHT22;9540;51.550;7.980;2024-02-26T12:37:46;9.00;99.90
18823;DHT22;9540;51.550;7.980;2024-02-26T12:40:14;8.90;99.90
18823;DHT22;9540;51.550;7.980;2024-02-26T12:42:42;9.00;99.90
18823;DHT22;9540;51.550;7.980;2024-02-26T12:45:14;8.90;99.90
18823;DHT22;9540;51.550;7.980;2024-02-26T12:47:42;8.90;99.90
18823;DHT22;9540;51.550;7.980;2024-02-26T12:50:11;8.80;99.90
18823;DHT22;9540;51.550;7.980;2024-02-26T12:52:40;8.70;99.90
18823;DHT22;9540;51.550;7.980;2024-02-26T12:55:08;8.60;99.90
18823;DHT22;9540;51.550;7.980;2024-02-26T12:57:37;8.50;99.90
18823;DHT22;9540;51.550;7.980;2024-02-26T13:00:07;8.40;99.90
18823;DHT22;9540;51.550;7.980;2024-02-26T13:02:39;8.40;99.90
18823;DHT22;9540;51.550;7.980;2024-02-26T13:05:07;8.40;99.90
18823;DHT22;9540;51.550;7.980;2024-02-26T13:07:41;8.50;99.90
18823;DHT22;9540;51.550;7.980;2024-02-26T13:10:09;8.70;99.90
18823;DHT22;9540;51.550;7.980;2024-02-26T13:12:37;8.80;99.90
18823;DHT22;9540;51.550;7.980;2024-02-26T13:15:06;9.10;99.90
18823;DHT22;9540;51.550;7.980;2024-02-26T13:17:33;9.50;99.90
18823;DHT22;9540;51.550;7.980;2024-02-26T13:20:02;9.70;99.90
18823;DHT22;9540;51.550;7.980;2024-02-26T13:22:31;9.80;99.90
18823;DHT22;9540;51.550;7.980;2024-02-26T13:25:27;9.90;99.90
18823;DHT22;9540;51.550;7.980;2024-02-26T13:28:12;10.00;99.90
18823;DHT22;9540;51.550;7.980;2024-02-26T13:31:01;10.20;99.90
18823;DHT22;9540;51.550;7.980;2024-02-26T13:33:30;10.40;99.90
18823;DHT22;9540;51.550;7.980;2024-02-26T13:36:02;10.40;99.90
18823;DHT22;9540;51.550;7.980;2024-02-26T13:38:29;10.50;99.90
18823;DHT22;9540;51.550;7.980;2024-02-26T13:40:57;10.40;99.90
18823;DHT22;9540;51.550;7.980;2024-02-26T13:43:24;10.20;99.90
18823;DHT22;9540;51.550;7.980;2024-02-26T13:45:51;10.10;99.90
18823;DHT22;9540;51.550;7.980;2024-02-26T13:48:19;10.00;99.90
18823;DHT22;9540;51.550;7.980;2024-02-26T13:50:46;9.90;99.90
18823;DHT22;9540;51.550;7.980;2024-02-26T13:53:15;9.90;99.90
18823;DHT22;9540;51.550;7.980;2024-02-26T13:55:42;9.80;99.90
18823;DHT22;9540;51.550;7.980;2024-02-26T13:58:12;9.70;99.90
18823;DHT22;9540;51.550;7.980;2024-02-26T14:00:40;9.60;99.90
18823;DHT22;9540;51.550;7.980;2024-02-26T14:03:07;9.50;99.90
18823;DHT22;9540;51.550;7.980;2024-02-26T14:05:34;9.50;99.90
18823;DHT22;9540;51.550;7.980;2024-02-26T14:08:02;9.60;99.90
18823;DHT22;9540;51.550;7.980;2024-02-26T14:10:30;9.60;99.90
18823;DHT22;9540;51.550;7.980;2024-02-26T14:12:58;9.50;99.90
18823;DHT22;9540;51.550;7.980;2024-02-26T14:15:26;9.50;99.90
18823;DHT22;9540;51.550;7.980;2024-02-26T14:17:54;9.50;99.90
18823;DHT22;9540;51.550;7.980;2024-02-26T14:20:22;9.50;99.90
18823;DHT22;9540;51.550;7.980;2024-02-26T14:22:50;9.50;99.90
18823;DHT22;9540;51.550;7.980;2024-02-26T14:25:18;9.40;99.90
18823;DHT22;9540;51.550;7.980;2024-02-26T14:27:48;9.40;99.90
18823;DHT22;9540;51.550;7.980;2024-02-26T14:30:16;9.40;99.90
18823;DHT22;9540;51.550;7.980;2024-02-26T14:32:43;9.40;99.90
18823;DHT22;9540;51.550;7.980;2024-02-26T14:35:11;9.30;99.90
18823;DHT22;9540;51.550;7.980;2024-02-26T14:37:38;9.40;99.90
18823;DHT22;9540;51.550;7.980;2024-02-26T14:40:07;9.30;99.90
18823;DHT22;9540;51.550;7.980;2024-02-26T14:42:35;9.30;99.90
18823;DHT22;9540;51.550;7.980;2024-02-26T14:45:05;9.30;99.90
18823;DHT22;9540;51.550;7.980;2024-02-26T14:47:34;9.30;99.90
18823;DHT22;9540;51.550;7.980;2024-02-26T14:50:01;9.20;99.90
18823;DHT22;9540;51.550;7.980;2024-02-26T14:52:29;9.30;99.90
18823;DHT22;9540;51.550;7.980;2024-02-26T14:54:56;9.20;99.90
18823;DHT22;9540;51.550;7.980;2024-02-26T14:57:24;9.10;99.90
18823;DHT22;9540;51.550;7.980;2024-02-26T14:59:51;9.00;99.90
18823;DHT22;9540;51.550;7.980;2024-02-26T15:02:19;8.80;99.90
18823;DHT22;9540;51.550;7.980;2024-02-26T15:04:47;8.70;99.90
18823;DHT22;9540;51.550;7.980;2024-02-26T15:07:14;8.80;99.90
18823;DHT22;9540;51.550;7.980;2024-02-26T15:09:41;8.80;99.90
18823;DHT22;9540;51.550;7.980;2024-02-26T15:12:10;8.80;99.90
18823;DHT22;9540;51.550;7.980;2024-02-26T15:14:45;8.70;99.90
18823;DHT22;9540;51.550;7.980;2024-02-26T15:17:13;8.60;99.90
18823;DHT22;9540;51.550;7.980;2024-02-26T15:19:41;8.50;99.90
18823;DHT22;9540;51.550;7.980;2024-02-26T15:22:08;8.50;99.90
18823;DHT22;9540;51.550;7.980;2024-02-26T15:24:36;8.40;99.90
18823;DHT22;9540;51.550;7.980;2024-02-26T15:27:03;8.40;99.90
18823;DHT22;9540;51.550;7.980;2024-02-26T15:29:30;8.30;99.90
18823;DHT22;9540;51.550;7.980;2024-02-26T15:31:57;8.20;99.90
18823;DHT22;9540;51.550;7.980;2024-02-26T15:34:24;8.10;99.90
18823;DHT22;9540;51.550;7.980;2024-02-26T15:36:53;8.10;99.90
18823;DHT22;9540;51.550;7.980;2024-02-26T15:39:20;8.00;99.90
18823;DHT22;9540;51.550;7.980;2024-02-26T15:41:47;8.00;99.90
18823;DHT22;9540;51.550;7.980;2024-02-26T15:44:14;7.90;99.90
18823;DHT22;9540;51.550;7.980;2024-02-26T15:46:42;7.90;99.90
18823;DHT22;9540;51.550;7.980;2024-02-26T15:49:09;7.90;99.90
18823;DHT22;9540;51.550;7.980;2024-02-26T15:51:36;7.90;99.90
18823;DHT22;9540;51.550;7.980;2024-02-26T15:54:05;7.90;99.90
18823;DHT22;9540;51.550;7.980;2024-02-26T15:56:32;7.90;99.90
18823;DHT22;9540;51.550;7.980;2024-02-26T15:59:01;7.90;99.90
18823;DHT22;9540;51.550;7.980;2024-02-26T16:01:28;7.90;99.90
18823;DHT22;9540;51.550;7.980;2024-02-26T16:03:55;7.90;99.90
18823;DHT22;9540;51.550;7.980;2024-02-26T16:06:28;7.80;99.90
18823;DHT22;9540;51.550;7.980;2024-02-26T16:08:56;7.80;99.90